sensor_id;sensor_type;location;lat;lon;timestamp;pressure;altitude;pressure_sealevel;temperature;humidity
42431;BME280;71905;47.466;19.024;2024-02-21T00:01:07;101030.19;;;7.97;100.00
42431;BME280;71905;47.466;19.024;2024-02-21T00:03:35;101030.19;;;8.01;100.00
42431;BME280;71905;47.466;19.024;2024-02-21T00:06:04;101027.47;;;8.07;100.00
42431;BME280;71905;47.466;19.024;2024-02-21T00:08:34;101022.13;;;8.11;100.00
42431;BME280;71905;47.466;19.024;2024-02-21T00:11:02;101020.38;;;8.10;100.00
42431;BME280;71905;47.466;19.024;2024-02-21T00:13:31;101019.50;;;8.14;100.00
42431;BME280;71905;47.466;19.024;2024-02-21T00:16:01;101014.22;;;8.16;100.00
42431;BME280;71905;47.466;19.024;2024-02-21T00:18:29;101015.16;;;8.07;100.00
42431;BME280;71905;47.466;19.024;2024-02-21T00:20:57;101009.09;;;8.02;100.00
42431;BME280;71905;47.466;19.024;2024-02-21T00:23:25;101003.81;;;8.04;100.00
42431;BME280;71905;47.466;19.024;2024-02-21T00:25:53;101009.03;;;8.08;100.00
42431;BME280;71905;47.466;19.024;2024-02-21T00:28:21;101008.16;;;8.08;100.00
42431;BME280;71905;47.466;19.024;2024-02-21T00:30:50;101002.06;;;8.04;100.00
42431;BME280;71905;47.466;19.024;2024-02-21T00:33:18;101000.38;;;7.97;100.00
42431;BME280;71905;47.466;19.024;2024-02-21T00:35:46;100996.00;;;7.97;100.00
42431;BME280;71905;47.466;19.024;2024-02-21T00:38:14;100991.56;;;8.03;100.00
42431;BME280;71905;47.466;19.024;2024-02-21T00:40:42;100995.00;;;8.08;100.00
42431;BME280;71905;47.466;19.024;2024-02-21T00:43:10;100990.69;;;8.02;100.00
42431;BME280;71905;47.466;19.024;2024-02-21T00:45:38;100989.00;;;7.95;100.00
42431;BME280;71905;47.466;19.024;2024-02-21T00:48:07;100983.81;;;7.90;100.00
42431;BME280;71905;47.466;19.024;2024-02-21T00:50:36;100987.31;;;7.91;100.00
42431;BME280;71905;47.466;19.024;2024-02-21T00:53:05;100985.66;;;7.82;100.00
42431;BME280;71905;47.466;19.024;2024-02-21T00:55:34;100994.44;;;7.80;100.00
42431;BME280;71905;47.466;19.024;2024-02-21T00:58:02;100985.66;;;7.82;100.00
42431;BME280;71905;47.466;19.024;2024-02-21T01:00:30;100977.72;;;7.85;100.00
42431;BME280;71905;47.466;19.024;2024-02-21T01:02:58;100985.59;;;7.85;100.00
42431;BME280;71905;47.466;19.024;2024-02-21T01:05:26;100976.78;;;7.91;100.00
42431;BME280;71905;47.466;19.024;2024-02-21T01:07:57;100977.63;;;7.93;100.00
42431;BME280;71905;47.466;19.024;2024-02-21T01:10:25;100984.75;;;7.83;100.00
42431;BME280;71905;47.466;19.024;2024-02-21T01:12:53;100981.34;;;7.77;100.00
42431;BME280;71905;47.466;19.024;2024-02-21T01:15:21;100983.91;;;7.81;100.00
42431;BME280;71905;47.466;19.024;2024-02-21T01:17:49;100992.69;;;7.80;100.00
42431;BME280;71905;47.466;19.024;2024-02-21T01:20:21;100991.09;;;7.65;100.00
42431;BME280;71905;47.466;19.024;2024-02-21T01:22:49;100983.19;;;7.67;100.00
42431;BME280;71905;47.466;19.024;2024-02-21T01:25:19;100980.47;;;7.75;100.00
42431;BME280;71905;47.466;19.024;2024-02-21T01:27:47;100977.81;;;7.75;100.00
42431;BME280;71905;47.466;19.024;2024-02-21T01:30:15;100974.41;;;7.70;100.00
42431;BME280;71905;47.466;19.024;2024-02-21T01:32:43;100976.09;;;7.72;100.00
42431;BME280;71905;47.466;19.024;2024-02-21T01:35:11;100973.47;;;7.72;100.00
42431;BME280;71905;47.466;19.024;2024-02-21T01:37:39;100970.03;;;7.68;100.00
42431;BME280;71905;47.466;19.024;2024-02-21T01:40:08;100970.91;;;7.67;100.00
42431;BME280;71905;47.466;19.024;2024-02-21T01:42:39;100966.59;;;7.60;100.00
42431;BME280;71905;47.466;19.024;2024-02-21T01:45:08;100978.00;;;7.62;100.00
42431;BME280;71905;47.466;19.024;2024-02-21T01:47:37;100978.84;;;7.61;100.00
42431;BME280;71905;47.466;19.024;2024-02-21T01:50:06;100969.22;;;7.62;100.00
42431;BME280;71905;47.466;19.024;2024-02-21T01:52:34;100977.09;;;7.62;100.00
42431;BME280;71905;47.466;19.024;2024-02-21T01:55:04;100966.59;;;7.60;100.00
42431;BME280;71905;47.466;19.024;2024-02-21T01:57:32;100963.94;;;7.62;100.00
42431;BME280;71905;47.466;19.024;2024-02-21T02:00:03;100970.97;;;7.60;100.00
42431;BME280;71905;47.466;19.024;2024-02-21T02:02:38;100962.13;;;7.68;100.00
42431;BME280;71905;47.466;19.024;2024-02-21T02:05:07;100954.34;;;7.62;100.00
42431;BME280;71905;47.466;19.024;2024-02-21T02:07:35;100957.84;;;7.63;100.00
42431;BME280;71905;47.466;19.024;2024-02-21T02:10:06;100960.38;;;7.69;100.00
42431;BME280;71905;47.466;19.024;2024-02-21T02:12:34;100962.13;;;7.70;100.00
42431;BME280;71905;47.466;19.024;2024-02-21T02:15:04;100955.13;;;7.67;100.00
42431;BME280;71905;47.466;19.024;2024-02-21T02:17:32;100963.81;;;7.77;100.00
42431;BME280;71905;47.466;19.024;2024-02-21T02:20:00;100966.38;;;7.80;100.00
42431;BME280;71905;47.466;19.024;2024-02-21T02:22:29;100964.66;;;7.79;100.00
42431;BME280;71905;47.466;19.024;2024-02-21T02:25:01;100960.28;;;7.78;100.00
42431;BME280;71905;47.466;19.024;2024-02-21T02:27:32;100960.31;;;7.75;100.00
42431;BME280;71905;47.466;19.024;2024-02-21T02:30:00;100960.31;;;7.77;100.00
42431;BME280;71905;47.466;19.024;2024-02-21T02:32:28;100955.94;;;7.73;100.00
42431;BME280;71905;47.466;19.024;2024-02-21T02:34:56;100959.44;;;7.73;100.00
42431;BME280;71905;47.466;19.024;2024-02-21T02:37:24;100957.72;;;7.72;100.00
42431;BME280;71905;47.466;19.024;2024-02-21T02:39:52;100952.50;;;7.69;100.00
42431;BME280;71905;47.466;19.024;2024-02-21T02:42:21;100955.97;;;7.71;100.00
42431;BME280;71905;47.466;19.024;2024-02-21T02:44:49;100959.50;;;7.68;100.00
42431;BME280;71905;47.466;19.024;2024-02-21T02:47:17;100953.44;;;7.63;100.00
42431;BME280;71905;47.466;19.024;2024-02-21T02:49:45;100950.88;;;7.57;100.00
42431;BME280;71905;47.466;19.024;2024-02-21T02:52:19;100944.69;;;7.60;100.00
42431;BME280;71905;47.466;19.024;2024-02-21T02:54:48;100954.31;;;7.64;100.00
42431;BME280;71905;47.466;19.024;2024-02-21T02:57:18;100948.22;;;7.57;100.00
42431;BME280;71905;47.466;19.024;2024-02-21T02:59:49;100952.69;;;7.51;100.00
42431;BME280;71905;47.466;19.024;2024-02-21T03:02:17;100962.31;;;7.52;100.00
42431;BME280;71905;47.466;19.024;2024-02-21T03:04:45;100964.00;;;7.57;100.00
42431;BME280;71905;47.466;19.024;2024-02-21T03:07:14;100956.06;;;7.62;100.00
42431;BME280;71905;47.466;19.024;2024-02-21T03:09:42;100969.28;;;7.56;100.00
42431;BME280;71905;47.466;19.024;2024-02-21T03:12:10;100960.50;;;7.57;100.00
42431;BME280;71905;47.466;19.024;2024-02-21T03:14:38;100957.06;;;7.52;100.00
42431;BME280;71905;47.466;19.024;2024-02-21T03:17:08;100957.88;;;7.57;100.00
42431;BME280;71905;47.466;19.024;2024-02-21T03:19:36;100960.47;;;7.60;100.00
42431;BME280;71905;47.466;19.024;2024-02-21T03:22:04;100959.56;;;7.61;100.00
42431;BME280;71905;47.466;19.024;2024-02-21T03:24:32;100958.72;;;7.59;100.00
42431;BME280;71905;47.466;19.024;2024-02-21T03:27:00;100965.81;;;7.52;100.00
42431;BME280;71905;47.466;19.024;2024-02-21T03:29:28;100964.09;;;7.51;100.00
42431;BME280;71905;47.466;19.024;2024-02-21T03:31:56;100968.41;;;7.57;100.00
42431;BME280;71905;47.466;19.024;2024-02-21T03:34:26;100966.69;;;7.53;100.00
42431;BME280;71905;47.466;19.024;2024-02-21T03:36:54;100969.34;;;7.48;100.00
42431;BME280;71905;47.466;19.024;2024-02-21T03:39:22;100969.34;;;7.48;100.00
42431;BME280;71905;47.466;19.024;2024-02-21T03:41:50;100979.88;;;7.47;100.00
42431;BME280;71905;47.466;19.024;2024-02-21T03:44:18;100973.81;;;7.42;100.00
42431;BME280;71905;47.466;19.024;2024-02-21T03:46:46;100970.34;;;7.36;100.00
42431;BME280;71905;47.466;19.024;2024-02-21T03:49:14;100962.47;;;7.38;100.00
42431;BME280;71905;47.466;19.024;2024-02-21T03:51:43;100966.91;;;7.31;100.00
42431;BME280;71905;47.466;19.024;2024-02-21T03:54:11;100963.44;;;7.28;100.00
42431;BME280;71905;47.466;19.024;2024-02-21T03:56:39;100973.97;;;7.23;100.00
42431;BME280;71905;47.466;19.024;2024-02-21T03:59:08;100967.84;;;7.26;100.00
42431;BME280;71905;47.466;19.024;2024-02-21T04:01:36;100967.84;;;7.23;100.00
42431;BME280;71905;47.466;19.024;2024-02-21T04:04:04;100971.34;;;7.22;100.00
42431;BME280;71905;47.466;19.024;2024-02-21T04:06:32;100968.81;;;7.14;100.00
42431;BME280;71905;47.466;19.024;2024-02-21T04:09:02;100974.09;;;7.09;100.00
42431;BME280;71905;47.466;19.024;2024-02-21T04:11:30;100969.69;;;7.10;100.00
42431;BME280;71905;47.466;19.024;2024-02-21T04:13:58;100960.06;;;7.14;100.00
42431;BME280;71905;47.466;19.024;2024-02-21T04:16:26;100966.22;;;7.09;100.00
42431;BME280;71905;47.466;19.024;2024-02-21T04:18:54;100959.28;;;7.02;100.00
42431;BME280;71905;47.466;19.024;2024-02-21T04:21:22;100965.41;;;7.01;100.00
42431;BME280;71905;47.466;19.024;2024-02-21T04:23:50;100960.97;;;7.08;100.00
42431;BME280;71905;47.466;19.024;2024-02-21T04:26:19;100968.06;;;6.97;100.00
42431;BME280;71905;47.466;19.024;2024-02-21T04:28:47;100962.84;;;6.92;100.00
42431;BME280;71905;47.466;19.024;2024-02-21T04:31:15;100967.25;;;6.90;100.00
42431;BME280;71905;47.466;19.024;2024-02-21T04:33:43;100960.28;;;6.83;100.00
42431;BME280;71905;47.466;19.024;2024-02-21T04:36:12;100958.53;;;6.88;100.00
42431;BME280;71905;47.466;19.024;2024-02-21T04:38:40;100963.84;;;6.79;100.00
42431;BME280;71905;47.466;19.024;2024-02-21T04:41:08;100955.09;;;6.78;100.00
42431;BME280;71905;47.466;19.024;2024-02-21T04:43:37;100959.47;;;6.76;100.00
42431;BME280;71905;47.466;19.024;2024-02-21T04:46:05;100958.72;;;6.62;100.00
42431;BME280;71905;47.466;19.024;2024-02-21T04:48:33;100950.91;;;6.50;100.00
42431;BME280;71905;47.466;19.024;2024-02-21T04:51:01;100962.31;;;6.49;100.00
42431;BME280;71905;47.466;19.024;2024-02-21T04:53:29;100965.78;;;6.53;100.00
42431;BME280;71905;47.466;19.024;2024-02-21T04:55:57;100964.91;;;6.52;100.00
42431;BME280;71905;47.466;19.024;2024-02-21T04:58:25;100953.56;;;6.48;100.00
42431;BME280;71905;47.466;19.024;2024-02-21T05:00:54;100976.34;;;6.40;100.00
42431;BME280;71905;47.466;19.024;2024-02-21T05:03:23;100973.75;;;6.33;100.00
42431;BME280;71905;47.466;19.024;2024-02-21T05:05:51;100972.88;;;6.37;100.00
42431;BME280;71905;47.466;19.024;2024-02-21T05:08:19;100979.84;;;6.33;100.00
42431;BME280;71905;47.466;19.024;2024-02-21T05:10:47;100978.97;;;6.33;100.00
42431;BME280;71905;47.466;19.024;2024-02-21T05:13:15;100987.75;;;6.29;100.00
42431;BME280;71905;47.466;19.024;2024-02-21T05:15:43;100986.03;;;6.28;100.00
42431;BME280;71905;47.466;19.024;2024-02-21T05:18:13;100988.69;;;6.23;100.00
42431;BME280;71905;47.466;19.024;2024-02-21T05:20:41;100983.44;;;6.18;100.00
42431;BME280;71905;47.466;19.024;2024-02-21T05:23:09;100983.44;;;6.15;100.00
42431;BME280;71905;47.466;19.024;2024-02-21T05:25:37;100977.34;;;6.13;100.00
42431;BME280;71905;47.466;19.024;2024-02-21T05:28:05;100977.38;;;6.10;100.00
42431;BME280;71905;47.466;19.024;2024-02-21T05:30:33;100974.72;;;6.13;100.00
42431;BME280;71905;47.466;19.024;2024-02-21T05:33:04;100974.69;;;6.16;100.00
42431;BME280;71905;47.466;19.024;2024-02-21T05:35:35;100976.47;;;6.13;100.00
42431;BME280;71905;47.466;19.024;2024-02-21T05:38:03;100973.84;;;6.14;100.00
42431;BME280;71905;47.466;19.024;2024-02-21T05:40:33;100963.38;;;6.11;100.00
42431;BME280;71905;47.466;19.024;2024-02-21T05:43:01;100962.47;;;6.14;100.00
42431;BME280;71905;47.466;19.024;2024-02-21T05:45:29;100965.09;;;6.15;100.00
42431;BME280;71905;47.466;19.024;2024-02-21T05:47:57;100963.34;;;6.17;100.00
42431;BME280;71905;47.466;19.024;2024-02-21T05:50:25;100971.22;;;6.13;100.00
42431;BME280;71905;47.466;19.024;2024-02-21T05:52:56;100971.25;;;6.11;100.00
42431;BME280;71905;47.466;19.024;2024-02-21T05:55:24;100970.34;;;6.14;100.00
42431;BME280;71905;47.466;19.024;2024-02-21T05:57:53;100983.47;;;6.12;100.00
42431;BME280;71905;47.466;19.024;2024-02-21T06:00:21;100986.97;;;6.13;100.00
42431;BME280;71905;47.466;19.024;2024-02-21T06:02:49;100988.69;;;6.15;100.00
42431;BME280;71905;47.466;19.024;2024-02-21T06:05:17;100982.56;;;6.16;100.00
42431;BME280;71905;47.466;19.024;2024-02-21T06:07:45;100987.78;;;6.19;100.00
42431;BME280;71905;47.466;19.024;2024-02-21T06:10:15;100989.53;;;6.24;100.00
42431;BME280;71905;47.466;19.024;2024-02-21T06:12:43;100986.03;;;6.28;100.00
42431;BME280;71905;47.466;19.024;2024-02-21T06:15:11;100990.44;;;6.23;100.00
42431;BME280;71905;47.466;19.024;2024-02-21T06:17:39;100974.59;;;6.35;100.00
42431;BME280;71905;47.466;19.024;2024-02-21T06:20:08;100979.84;;;6.39;100.00
42431;BME280;71905;47.466;19.024;2024-02-21T06:22:36;100977.22;;;6.39;100.00
42431;BME280;71905;47.466;19.024;2024-02-21T06:25:04;100986.78;;;6.51;100.00
42431;BME280;71905;47.466;19.024;2024-02-21T06:27:34;100978.84;;;6.57;100.00
42431;BME280;71905;47.466;19.024;2024-02-21T06:30:02;100977.09;;;6.61;100.00
42431;BME280;71905;47.466;19.024;2024-02-21T06:32:30;100982.28;;;6.67;100.00
42431;BME280;71905;47.466;19.024;2024-02-21T06:34:59;100991.91;;;6.68;100.00
42431;BME280;71905;47.466;19.024;2024-02-21T06:37:28;100974.38;;;6.76;100.00
42431;BME280;71905;47.466;19.024;2024-02-21T06:39:57;100975.16;;;6.86;100.00
42431;BME280;71905;47.466;19.024;2024-02-21T06:42:25;100973.34;;;6.94;100.00
42431;BME280;71905;47.466;19.024;2024-02-21T06:44:55;100982.06;;;7.00;100.00
42431;BME280;71905;47.466;19.024;2024-02-21T06:47:23;100975.81;;;7.11;100.00
42431;BME280;71905;47.466;19.024;2024-02-21T06:49:51;100969.75;;;7.07;100.00
42431;BME280;71905;47.466;19.024;2024-02-21T06:52:20;100980.22;;;7.13;100.00
42431;BME280;71905;47.466;19.024;2024-02-21T06:54:47;100971.44;;;7.11;100.00
42431;BME280;71905;47.466;19.024;2024-02-21T06:57:15;100981.09;;;7.12;100.00
42431;BME280;71905;47.466;19.024;2024-02-21T06:59:43;100978.41;;;7.18;100.00
42431;BME280;71905;47.466;19.024;2024-02-21T07:02:13;100971.28;;;7.29;100.00
42431;BME280;71905;47.466;19.024;2024-02-21T07:04:41;100971.22;;;7.35;100.00
42431;BME280;71905;47.466;19.024;2024-02-21T07:07:10;100971.19;;;7.42;100.00
42431;BME280;71905;47.466;19.024;2024-02-21T07:09:39;100970.28;;;7.43;100.00
42431;BME280;71905;47.466;19.024;2024-02-21T07:12:07;100981.59;;;7.52;100.00
42431;BME280;71905;47.466;19.024;2024-02-21T07:14:35;100987.72;;;7.53;100.00
42431;BME280;71905;47.466;19.024;2024-02-21T07:17:03;100997.28;;;7.60;100.00
42431;BME280;71905;47.466;19.024;2024-02-21T07:19:33;100994.63;;;7.61;100.00
42431;BME280;71905;47.466;19.024;2024-02-21T07:22:02;100995.50;;;7.65;100.00
42431;BME280;71905;47.466;19.024;2024-02-21T07:24:30;100999.00;;;7.64;100.00
42431;BME280;71905;47.466;19.024;2024-02-21T07:26:59;100999.75;;;7.74;100.00
42431;BME280;71905;47.466;19.024;2024-02-21T07:29:31;101007.69;;;7.69;100.00
42431;BME280;71905;47.466;19.024;2024-02-21T07:31:59;101005.03;;;7.75;100.00
42431;BME280;71905;47.466;19.024;2024-02-21T07:34:27;101004.25;;;7.65;100.00
42431;BME280;71905;47.466;19.024;2024-02-21T07:36:57;101004.19;;;7.70;100.00
42431;BME280;71905;47.466;19.024;2024-02-21T07:39:25;101012.13;;;7.67;100.00
42431;BME280;71905;47.466;19.024;2024-02-21T07:41:53;101025.28;;;7.65;100.00
42431;BME280;71905;47.466;19.024;2024-02-21T07:44:21;101024.38;;;7.68;100.00
42431;BME280;71905;47.466;19.024;2024-02-21T07:46:49;101022.56;;;7.72;100.00
42431;BME280;71905;47.466;19.024;2024-02-21T07:49:17;101020.72;;;7.81;100.00
42431;BME280;71905;47.466;19.024;2024-02-21T07:51:45;101017.16;;;7.88;100.00
42431;BME280;71905;47.466;19.024;2024-02-21T07:54:14;101015.28;;;7.98;100.00
42431;BME280;71905;47.466;19.024;2024-02-21T07:56:45;101018.66;;;8.09;100.00
42431;BME280;71905;47.466;19.024;2024-02-21T07:59:14;101018.53;;;8.20;100.00
42431;BME280;71905;47.466;19.024;2024-02-21T08:01:42;101018.34;;;8.34;100.00
42431;BME280;71905;47.466;19.024;2024-02-21T08:04:11;101009.44;;;8.47;100.00
42431;BME280;71905;47.466;19.024;2024-02-21T08:06:39;101011.88;;;8.61;100.00
42431;BME280;71905;47.466;19.024;2024-02-21T08:09:07;101013.47;;;8.72;100.00
42431;BME280;71905;47.466;19.024;2024-02-21T08:11:37;101004.50;;;8.85;100.00
42431;BME280;71905;47.466;19.024;2024-02-21T08:14:06;101000.81;;;8.97;100.00
42431;BME280;71905;47.466;19.024;2024-02-21T08:16:34;101010.59;;;8.91;100.00
42431;BME280;71905;47.466;19.024;2024-02-21T08:19:02;100996.50;;;8.93;100.00
42431;BME280;71905;47.466;19.024;2024-02-21T08:21:31;100998.31;;;8.90;100.00
42431;BME280;71905;47.466;19.024;2024-02-21T08:23:59;100999.31;;;8.81;100.00
42431;BME280;71905;47.466;19.024;2024-02-21T08:26:27;101005.47;;;8.80;100.00
42431;BME280;71905;47.466;19.024;2024-02-21T08:28:58;101001.81;;;8.89;100.00
42431;BME280;71905;47.466;19.024;2024-02-21T08:31:27;101004.38;;;8.95;100.00
42431;BME280;71905;47.466;19.024;2024-02-21T08:34:00;101005.88;;;9.09;100.00
42431;BME280;71905;47.466;19.024;2024-02-21T08:36:30;101004.03;;;9.14;100.00
42431;BME280;71905;47.466;19.024;2024-02-21T08:38:59;101011.00;;;9.20;100.00
42431;BME280;71905;47.466;19.024;2024-02-21T08:41:30;101007.47;;;9.20;100.00
42431;BME280;71905;47.466;19.024;2024-02-21T08:44:19;101005.47;;;9.34;100.00
42431;BME280;71905;47.466;19.024;2024-02-21T08:46:47;101004.44;;;9.44;100.00
42431;BME280;71905;47.466;19.024;2024-02-21T08:49:15;101000.78;;;9.51;100.00
42431;BME280;71905;47.466;19.024;2024-02-21T08:51:43;101007.78;;;9.54;100.00
42431;BME280;71905;47.466;19.024;2024-02-21T08:54:12;101004.22;;;9.56;100.00
42431;BME280;71905;47.466;19.024;2024-02-21T08:56:40;100998.94;;;9.56;100.00
42431;BME280;71905;47.466;19.024;2024-02-21T08:59:08;100997.25;;;9.52;100.00
42431;BME280;71905;47.466;19.024;2024-02-21T09:01:37;101000.84;;;9.48;100.00
42431;BME280;71905;47.466;19.024;2024-02-21T09:04:06;100999.03;;;9.50;100.00
42431;BME280;71905;47.466;19.024;2024-02-21T09:06:34;100994.63;;;9.51;100.00
42431;BME280;71905;47.466;19.024;2024-02-21T09:09:06;100993.00;;;9.45;100.00
42431;BME280;71905;47.466;19.024;2024-02-21T09:11:34;100991.09;;;9.53;100.00
42431;BME280;71905;47.466;19.024;2024-02-21T09:14:03;100989.41;;;9.48;100.00
42431;BME280;71905;47.466;19.024;2024-02-21T09:16:31;100994.53;;;9.57;100.00
42431;BME280;71905;47.466;19.024;2024-02-21T09:19:01;100989.19;;;9.60;100.00
42431;BME280;71905;47.466;19.024;2024-02-21T09:21:30;100989.09;;;9.64;100.00
42431;BME280;71905;47.466;19.024;2024-02-21T09:23:57;100989.00;;;9.70;100.00
42431;BME280;71905;47.466;19.024;2024-02-21T09:26:26;100981.88;;;9.74;100.00
42431;BME280;71905;47.466;19.024;2024-02-21T09:28:54;100978.94;;;9.89;100.00
42431;BME280;71905;47.466;19.024;2024-02-21T09:31:24;100981.53;;;9.94;100.00
42431;BME280;71905;47.466;19.024;2024-02-21T09:33:52;100990.06;;;10.07;100.00
42431;BME280;71905;47.466;19.024;2024-02-21T09:36:22;100988.84;;;10.24;100.00
42431;BME280;71905;47.466;19.024;2024-02-21T09:38:50;100984.75;;;10.50;100.00
42431;BME280;71905;47.466;19.024;2024-02-21T09:41:23;100988.22;;;10.52;100.00
42431;BME280;71905;47.466;19.024;2024-02-21T09:43:53;100995.84;;;10.66;100.00
42431;BME280;71905;47.466;19.024;2024-02-21T09:46:28;100992.38;;;10.64;100.00
42431;BME280;71905;47.466;19.024;2024-02-21T09:49:10;100989.66;;;10.67;100.00
42431;BME280;71905;47.466;19.024;2024-02-21T09:51:43;100983.09;;;10.46;100.00
42431;BME280;71905;47.466;19.024;2024-02-21T09:54:12;100985.66;;;10.49;100.00
42431;BME280;71905;47.466;19.024;2024-02-21T09:56:45;100980.75;;;10.32;100.00
42431;BME280;71905;47.466;19.024;2024-02-21T09:59:14;100981.53;;;10.37;100.00
42431;BME280;71905;47.466;19.024;2024-02-21T10:01:43;100993.34;;;10.59;100.00
42431;BME280;71905;47.466;19.024;2024-02-21T10:04:13;100988.78;;;10.66;100.00
42431;BME280;71905;47.466;19.024;2024-02-21T10:06:43;100977.53;;;10.58;100.00
42431;BME280;71905;47.466;19.024;2024-02-21T10:09:20;100982.75;;;10.61;100.00
42431;BME280;71905;47.466;19.024;2024-02-21T10:11:48;100975.81;;;10.57;100.00
42431;BME280;71905;47.466;19.024;2024-02-21T10:14:17;100970.22;;;10.71;100.00
42431;BME280;71905;47.466;19.024;2024-02-21T10:16:46;100970.34;;;10.65;100.00
42431;BME280;71905;47.466;19.024;2024-02-21T10:19:18;100981.13;;;10.54;100.00
42431;BME280;71905;47.466;19.024;2024-02-21T10:22:02;100969.63;;;10.58;100.00
42431;BME280;71905;47.466;19.024;2024-02-21T10:24:31;100969.09;;;10.42;100.00
42431;BME280;71905;47.466;19.024;2024-02-21T10:27:01;100970.63;;;10.52;100.00
42431;BME280;71905;47.466;19.024;2024-02-21T10:29:30;100961.19;;;10.42;100.00
42431;BME280;71905;47.466;19.024;2024-02-21T10:32:06;100961.66;;;10.59;100.00
42431;BME280;71905;47.466;19.024;2024-02-21T10:34:34;100956.50;;;10.55;100.00
42431;BME280;71905;47.466;19.024;2024-02-21T10:37:05;100952.91;;;10.57;100.00
42431;BME280;71905;47.466;19.024;2024-02-21T10:39:34;100937.06;;;10.57;100.00
42431;BME280;71905;47.466;19.024;2024-02-21T10:42:03;100947.94;;;10.44;100.00
42431;BME280;71905;47.466;19.024;2024-02-21T10:44:33;100945.25;;;10.45;100.00
42431;BME280;71905;47.466;19.024;2024-02-21T10:47:07;100935.66;;;10.41;100.00
42431;BME280;71905;47.466;19.024;2024-02-21T10:49:38;100938.13;;;10.49;100.00
42431;BME280;71905;47.466;19.024;2024-02-21T10:52:13;100928.38;;;10.51;100.00
42431;BME280;71905;47.466;19.024;2024-02-21T10:54:48;100925.25;;;10.35;100.00
42431;BME280;71905;47.466;19.024;2024-02-21T10:57:17;100921.50;;;10.45;100.00
42431;BME280;71905;47.466;19.024;2024-02-21T10:59:48;100916.91;;;10.52;100.00
42431;BME280;71905;47.466;19.024;2024-02-21T11:02:16;100913.94;;;10.66;100.00
42431;BME280;71905;47.466;19.024;2024-02-21T11:04:45;100909.19;;;10.81;100.00
42431;BME280;71905;47.466;19.024;2024-02-21T11:07:16;100899.91;;;10.99;100.00
42431;BME280;71905;47.466;19.024;2024-02-21T11:09:50;100904.75;;;11.16;100.00
42431;BME280;71905;47.466;19.024;2024-02-21T11:12:20;100893.94;;;11.25;100.00
42431;BME280;71905;47.466;19.024;2024-02-21T11:14:49;100879.53;;;11.37;100.00
42431;BME280;71905;47.466;19.024;2024-02-21T11:17:17;100880.78;;;11.55;100.00
42431;BME280;71905;47.466;19.024;2024-02-21T11:19:46;100871.78;;;11.29;100.00
42431;BME280;71905;47.466;19.024;2024-02-21T11:22:16;100873.34;;;11.38;100.00
42431;BME280;71905;47.466;19.024;2024-02-21T11:24:45;100867.22;;;11.36;100.00
42431;BME280;71905;47.466;19.024;2024-02-21T11:27:15;100867.47;;;11.27;100.00
42431;BME280;71905;47.466;19.024;2024-02-21T11:29:43;100868.81;;;11.41;100.00
42431;BME280;71905;47.466;19.024;2024-02-21T11:32:14;100862.31;;;11.53;100.00
42431;BME280;71905;47.466;19.024;2024-02-21T11:34:53;100855.25;;;11.54;100.00
42431;BME280;71905;47.466;19.024;2024-02-21T11:37:24;100853.91;;;11.39;100.00
42431;BME280;71905;47.466;19.024;2024-02-21T11:39:53;100861.06;;;11.35;100.00
42431;BME280;71905;47.466;19.024;2024-02-21T11:42:21;100860.06;;;11.39;100.00
42431;BME280;71905;47.466;19.024;2024-02-21T11:44:49;100861.41;;;11.54;100.00
42431;BME280;71905;47.466;19.024;2024-02-21T11:47:17;100848.81;;;11.93;100.00
42431;BME280;71905;47.466;19.024;2024-02-21T11:49:46;100848.00;;;12.19;100.00
42431;BME280;71905;47.466;19.024;2024-02-21T11:52:17;100841.63;;;11.98;100.00
42431;BME280;71905;47.466;19.024;2024-02-21T11:54:48;100832.75;;;11.70;100.00
42431;BME280;71905;47.466;19.024;2024-02-21T11:57:17;100840.94;;;11.61;100.00
42431;BME280;71905;47.466;19.024;2024-02-21T11:59:45;100839.50;;;11.49;100.00
42431;BME280;71905;47.466;19.024;2024-02-21T12:02:15;100837.94;;;11.42;100.00
42431;BME280;71905;47.466;19.024;2024-02-21T12:04:43;100847.94;;;11.32;100.00
42431;BME280;71905;47.466;19.024;2024-02-21T12:07:11;100839.09;;;11.33;100.00
42431;BME280;71905;47.466;19.024;2024-02-21T12:09:41;100834.88;;;11.26;100.00
42431;BME280;71905;47.466;19.024;2024-02-21T12:12:11;100828.50;;;11.33;100.00
42431;BME280;71905;47.466;19.024;2024-02-21T12:14:39;100821.41;;;11.35;100.00
42431;BME280;71905;47.466;19.024;2024-02-21T12:17:07;100827.50;;;11.37;100.00
42431;BME280;71905;47.466;19.024;2024-02-21T12:19:35;100826.59;;;11.68;100.00
42431;BME280;71905;47.466;19.024;2024-02-21T12:22:03;100818.25;;;12.39;100.00
42431;BME280;71905;47.466;19.024;2024-02-21T12:24:33;100820.50;;;11.97;100.00
42431;BME280;71905;47.466;19.024;2024-02-21T12:27:03;100821.31;;;11.68;100.00
42431;BME280;71905;47.466;19.024;2024-02-21T12:29:33;100815.25;;;11.64;100.00
42431;BME280;71905;47.466;19.024;2024-02-21T12:32:03;100818.22;;;11.54;100.00
42431;BME280;71905;47.466;19.024;2024-02-21T12:34:31;100822.59;;;11.55;100.00
42431;BME280;71905;47.466;19.024;2024-02-21T12:37:18;100811.94;;;11.58;100.00
42431;BME280;71905;47.466;19.024;2024-02-21T12:39:47;100809.34;;;11.56;100.00
42431;BME280;71905;47.466;19.024;2024-02-21T12:42:16;100811.31;;;11.79;100.00
42431;BME280;71905;47.466;19.024;2024-02-21T12:44:46;100803.63;;;11.99;100.00
42431;BME280;71905;47.466;19.024;2024-02-21T12:47:14;100795.75;;;11.98;100.00